createdAt,value
2018-03-30T00:01:50.456Z,79.70
2018-03-30T00:04:16.756Z,79.70
2018-03-30T00:06:43.349Z,80.50
2018-03-30T00:09:09.587Z,80.50
2018-03-30T00:11:35.832Z,79.90
2018-03-30T00:14:02.066Z,79.50
2018-03-30T00:16:28.671Z,80.10
2018-03-30T00:18:54.913Z,80.10
2018-03-30T00:21:21.720Z,80.00
2018-03-30T00:23:47.933Z,80.10
2018-03-30T00:26:14.177Z,80.00
2018-03-30T00:28:40.945Z,80.30
2018-03-30T00:31:07.192Z,80.00
2018-03-30T00:33:33.413Z,79.80
2018-03-30T00:35:59.614Z,80.60
2018-03-30T00:38:25.869Z,80.60
2018-03-30T00:40:52.118Z,80.30
2018-03-30T00:43:18.389Z,80.10
2018-03-30T00:45:44.573Z,79.90
2018-03-30T00:48:10.801Z,79.90
2018-03-30T00:50:37.046Z,80.30
2018-03-30T00:53:03.662Z,80.20
2018-03-30T00:55:29.935Z,80.30
2018-03-30T00:57:57.020Z,80.10
2018-03-30T01:00:23.240Z,80.10
2018-03-30T01:02:49.496Z,80.00
2018-03-30T01:05:16.120Z,80.90
2018-03-30T01:07:42.340Z,80.90
2018-03-30T01:12:41.526Z,80.60
2018-03-30T01:15:07.740Z,80.00
2018-03-30T01:17:33.985Z,79.60
2018-03-30T01:20:00.238Z,79.70
2018-03-30T01:22:26.461Z,80.30
2018-03-30T01:24:52.701Z,81.40
2018-03-30T01:27:18.947Z,82.60
2018-03-30T01:29:45.563Z,82.60
2018-03-30T01:32:12.446Z,82.60
2018-03-30T01:34:39.203Z,82.30
2018-03-30T01:37:05.405Z,81.00
2018-03-30T01:39:32.012Z,80.50
2018-03-30T01:41:58.213Z,80.50
2018-03-30T01:44:24.454Z,80.30
2018-03-30T01:46:50.729Z,81.10
2018-03-30T01:49:17.000Z,81.60
2018-03-30T01:51:44.276Z,82.40
2018-03-30T01:54:10.520Z,81.70
2018-03-30T01:56:36.720Z,82.40
2018-03-30T01:59:02.993Z,82.20
2018-03-30T02:01:29.589Z,83.30
2018-03-30T02:03:55.802Z,83.30
2018-03-30T02:06:22.092Z,84.80
2018-03-30T02:08:48.320Z,85.10
2018-03-30T02:11:14.527Z,85.20
2018-03-30T02:13:41.121Z,84.60
2018-03-30T02:16:07.357Z,84.70
2018-03-30T02:18:33.586Z,84.60
2018-03-30T02:20:59.804Z,84.00
2018-03-30T02:23:26.016Z,84.50
2018-03-30T02:25:52.222Z,84.80
2018-03-30T02:28:18.450Z,84.60
2018-03-30T02:30:44.671Z,83.50
2018-03-30T02:33:10.877Z,83.40
2018-03-30T02:35:37.106Z,83.90
2018-03-30T02:38:03.339Z,85.60
2018-03-30T02:40:29.595Z,86.10
2018-03-30T02:42:55.881Z,86.20
2018-03-30T02:45:22.117Z,86.60
2018-03-30T02:47:48.342Z,87.00
2018-03-30T02:50:15.340Z,86.30
2018-03-30T02:52:41.584Z,86.70
2018-03-30T02:55:07.831Z,86.50
2018-03-30T02:57:34.124Z,87.30
2018-03-30T03:00:00.277Z,87.20
2018-03-30T03:02:26.516Z,87.60
2018-03-30T03:04:53.706Z,87.40
2018-03-30T03:07:20.275Z,87.90
2018-03-30T03:09:46.490Z,87.90
2018-03-30T03:12:12.742Z,88.30
2018-03-30T03:14:38.947Z,88.50
2018-03-30T03:17:05.173Z,88.20
2018-03-30T03:19:31.418Z,87.50
2018-03-30T03:21:57.634Z,86.30
2018-03-30T03:24:23.865Z,85.90
2018-03-30T03:26:50.121Z,84.60
2018-03-30T03:29:16.333Z,83.90
2018-03-30T03:31:42.566Z,85.10
2018-03-30T03:34:08.862Z,85.30
2018-03-30T03:36:35.057Z,85.10
2018-03-30T03:39:01.269Z,85.90
2018-03-30T03:41:27.493Z,85.90
2018-03-30T03:43:53.741Z,85.80
2018-03-30T03:46:19.952Z,86.30
2018-03-30T03:48:46.200Z,86.80
2018-03-30T03:51:13.398Z,87.30
2018-03-30T03:53:39.620Z,86.70
2018-03-30T03:56:05.842Z,86.40
2018-03-30T03:58:32.075Z,86.90
2018-03-30T04:00:58.327Z,86.80
2018-03-30T04:03:24.540Z,86.80
2018-03-30T04:05:50.774Z,86.70
2018-03-30T04:08:16.974Z,85.60
2018-03-30T04:10:43.215Z,85.50
2018-03-30T04:13:09.465Z,85.60
2018-03-30T04:15:35.663Z,85.40
2018-03-30T04:18:01.927Z,85.00
2018-03-30T04:20:28.152Z,84.80
2018-03-30T04:22:54.402Z,85.40
2018-03-30T04:25:20.611Z,86.30
2018-03-30T04:27:46.856Z,86.10
2018-03-30T04:30:13.072Z,86.20
2018-03-30T04:32:39.312Z,86.70
2018-03-30T04:35:05.537Z,85.50
2018-03-30T04:37:31.737Z,84.70
2018-03-30T04:39:57.974Z,83.90
2018-03-30T04:42:24.226Z,83.90
2018-03-30T04:44:50.481Z,84.90
2018-03-30T04:47:17.702Z,85.40
2018-03-30T04:49:43.951Z,85.40
2018-03-30T04:52:10.163Z,84.70
2018-03-30T04:54:36.404Z,85.70
2018-03-30T04:57:02.682Z,87.20
2018-03-30T04:59:28.903Z,87.90
2018-03-30T05:01:55.150Z,87.70
2018-03-30T05:04:21.376Z,87.70
2018-03-30T05:06:47.630Z,86.90
2018-03-30T05:09:13.839Z,86.60
2018-03-30T05:11:40.058Z,86.80
2018-03-30T05:14:06.315Z,85.30
2018-03-30T05:16:32.555Z,84.90
2018-03-30T05:18:58.773Z,85.40
2018-03-30T05:21:25.002Z,86.30
2018-03-30T05:23:51.221Z,85.50
2018-03-30T05:26:17.445Z,85.40
2018-03-30T05:28:43.693Z,84.90
2018-03-30T05:31:10.273Z,85.20
2018-03-30T05:33:36.500Z,85.20
2018-03-30T05:36:02.748Z,86.40
2018-03-30T05:38:28.962Z,86.20
2018-03-30T05:40:55.222Z,87.40
2018-03-30T05:43:21.449Z,86.90
2018-03-30T05:45:47.727Z,86.00
2018-03-30T05:48:14.328Z,86.90
2018-03-30T05:50:40.567Z,86.90
2018-03-30T05:53:07.153Z,85.70
2018-03-30T05:55:33.410Z,85.70
2018-03-30T05:57:59.648Z,85.90
2018-03-30T06:00:25.896Z,86.30
2018-03-30T06:02:53.150Z,85.90
2018-03-30T06:05:21.914Z,85.80
2018-03-30T06:07:48.143Z,85.80
2018-03-30T06:10:14.357Z,85.30
2018-03-30T06:12:40.579Z,84.70
2018-03-30T06:15:06.822Z,85.90
2018-03-30T06:17:33.070Z,85.60
2018-03-30T06:19:59.316Z,84.50
2018-03-30T06:22:25.597Z,84.50
2018-03-30T06:24:51.831Z,84.10
2018-03-30T06:27:18.067Z,84.40
2018-03-30T06:29:44.311Z,84.90
2018-03-30T06:32:10.964Z,84.60
2018-03-30T06:34:37.557Z,84.80
2018-03-30T06:37:03.812Z,84.80
2018-03-30T06:39:30.389Z,84.90
2018-03-30T06:41:56.628Z,85.00
2018-03-30T06:44:22.880Z,84.30
2018-03-30T06:46:49.119Z,83.30
2018-03-30T06:49:15.349Z,82.10
2018-03-30T06:51:42.177Z,82.00
2018-03-30T06:54:08.433Z,81.70
2018-03-30T06:56:34.674Z,82.10
2018-03-30T06:59:01.283Z,81.20
2018-03-30T07:01:28.102Z,81.20
2018-03-30T07:03:54.364Z,80.50
2018-03-30T07:06:20.610Z,79.70
2018-03-30T07:08:47.212Z,78.80
2018-03-30T07:11:13.421Z,78.80
2018-03-30T07:13:39.705Z,78.20
2018-03-30T07:16:05.957Z,78.70
2018-03-30T07:18:32.193Z,78.80
2018-03-30T07:20:58.439Z,78.80
2018-03-30T07:23:24.668Z,78.60
2018-03-30T07:25:51.694Z,79.90
2018-03-30T07:28:17.998Z,80.70
2018-03-30T07:30:44.590Z,80.30
2018-03-30T07:33:10.817Z,80.30
2018-03-30T07:35:37.054Z,79.40
2018-03-30T07:38:04.329Z,78.50
2018-03-30T07:40:30.597Z,79.20
2018-03-30T07:42:56.810Z,80.40
2018-03-30T07:45:23.055Z,80.00
2018-03-30T07:47:49.280Z,80.30
2018-03-30T07:50:15.497Z,78.40
2018-03-30T07:52:41.737Z,78.80
2018-03-30T07:55:07.968Z,78.30
2018-03-30T07:57:34.227Z,78.20
2018-03-30T08:00:00.483Z,78.30
2018-03-30T08:02:28.110Z,78.80
2018-03-30T08:04:54.378Z,78.80
2018-03-30T08:07:21.034Z,78.90
2018-03-30T08:09:47.274Z,78.90
2018-03-30T08:12:13.543Z,79.30
2018-03-30T08:14:39.810Z,78.30
2018-03-30T08:17:06.836Z,76.70
2018-03-30T08:19:33.075Z,74.90
2018-03-30T08:21:59.683Z,74.90
2018-03-30T08:24:25.950Z,74.90
2018-03-30T08:26:52.168Z,75.10
2018-03-30T08:29:20.480Z,75.00
2018-03-30T08:31:51.292Z,75.20
2018-03-30T08:34:18.841Z,73.60
2018-03-30T08:36:45.109Z,73.60
2018-03-30T08:39:11.370Z,74.50
2018-03-30T08:41:37.628Z,75.80
2018-03-30T08:44:04.485Z,75.00
2018-03-30T08:46:30.712Z,72.70
2018-03-30T08:48:56.961Z,72.60
2018-03-30T08:51:23.204Z,71.70
2018-03-30T08:53:49.440Z,70.30
2018-03-30T08:56:19.244Z,70.30
2018-03-30T08:58:48.374Z,69.70
2018-03-30T09:01:14.642Z,69.60
2018-03-30T09:03:40.915Z,69.90
2018-03-30T09:06:07.198Z,70.70
2018-03-30T09:08:33.416Z,70.50
2018-03-30T09:10:59.680Z,69.70
2018-03-30T09:13:25.943Z,70.40
2018-03-30T09:15:52.190Z,68.50
2018-03-30T09:18:19.443Z,69.30
2018-03-30T09:20:46.058Z,66.70
2018-03-30T09:23:12.303Z,66.70
2018-03-30T09:25:38.916Z,68.40
2018-03-30T09:28:05.222Z,68.40
2018-03-30T09:30:31.507Z,68.40
2018-03-30T09:32:57.726Z,67.20
2018-03-30T09:35:24.837Z,66.00
2018-03-30T09:37:51.070Z,67.30
2018-03-30T09:40:18.137Z,66.40
2018-03-30T09:42:44.399Z,67.20
2018-03-30T09:45:10.649Z,66.80
2018-03-30T09:47:36.902Z,67.00
2018-03-30T09:50:03.205Z,66.00
2018-03-30T09:52:29.489Z,64.90
2018-03-30T09:54:56.141Z,64.80
2018-03-30T09:57:22.768Z,63.60
2018-03-30T09:59:49.395Z,65.00
2018-03-30T10:02:15.665Z,65.10
2018-03-30T10:04:43.756Z,64.60
2018-03-30T10:07:10.027Z,64.10
2018-03-30T10:09:36.296Z,63.20
2018-03-30T10:12:02.561Z,63.10
2018-03-30T10:14:28.778Z,61.30
2018-03-30T10:16:55.061Z,60.90
2018-03-30T10:19:21.702Z,56.30
2018-03-30T10:21:47.990Z,56.30
2018-03-30T10:24:14.237Z,56.50
2018-03-30T10:26:40.513Z,54.30
2018-03-30T10:29:06.775Z,54.30
2018-03-30T10:31:33.005Z,51.80
2018-03-30T10:33:59.687Z,49.60
2018-03-30T10:36:25.906Z,49.60
2018-03-30T10:38:52.510Z,45.30
2018-03-30T10:41:18.769Z,45.30
2018-03-30T10:43:45.395Z,42.20
2018-03-30T10:46:11.987Z,40.00
2018-03-30T10:48:38.256Z,40.00
2018-03-30T10:51:04.506Z,39.30
2018-03-30T10:53:31.106Z,37.50
2018-03-30T10:55:57.468Z,37.50
2018-03-30T10:58:23.702Z,35.60
2018-03-30T11:00:50.922Z,34.60
2018-03-30T11:03:17.235Z,34.20
2018-03-30T11:05:43.468Z,33.50
2018-03-30T11:08:09.808Z,33.10
2018-03-30T11:10:36.090Z,33.60
2018-03-30T11:13:02.965Z,34.30
2018-03-30T11:15:29.239Z,33.10
2018-03-30T11:17:55.971Z,35.30
2018-03-30T11:20:22.280Z,35.30
2018-03-30T11:22:48.546Z,35.00
2018-03-30T11:25:14.862Z,34.70
2018-03-30T11:27:41.514Z,30.30
2018-03-30T11:30:08.124Z,30.20
2018-03-30T11:32:34.753Z,29.40
2018-03-30T11:35:01.931Z,29.40
2018-03-30T11:37:28.211Z,28.40
2018-03-30T11:39:55.830Z,28.20
2018-03-30T11:42:22.529Z,27.80
2018-03-30T11:44:48.769Z,27.80
2018-03-30T11:47:15.085Z,28.10
2018-03-30T11:49:42.840Z,27.40
2018-03-30T11:52:09.183Z,27.70
2018-03-30T11:54:35.422Z,28.90
2018-03-30T11:57:02.542Z,29.70
2018-03-30T11:59:28.801Z,29.80
2018-03-30T12:01:55.081Z,30.60
2018-03-30T12:04:21.351Z,32.40
2018-03-30T12:06:47.659Z,34.80
2018-03-30T12:09:13.987Z,35.60
2018-03-30T12:11:40.270Z,36.70
2018-03-30T12:14:06.497Z,36.80
2018-03-30T12:16:33.674Z,36.70
2018-03-30T12:18:59.959Z,38.00
2018-03-30T12:21:26.622Z,37.70
2018-03-30T12:23:52.913Z,37.70
2018-03-30T12:26:19.210Z,36.60
2018-03-30T12:28:46.325Z,37.10
2018-03-30T12:31:12.630Z,37.10
2018-03-30T12:33:38.869Z,37.90
2018-03-30T12:36:06.009Z,39.90
2018-03-30T12:38:32.516Z,38.30
2018-03-30T12:40:59.351Z,38.30
2018-03-30T12:43:25.940Z,38.40
2018-03-30T12:45:52.579Z,38.20
2018-03-30T12:48:19.217Z,37.20
2018-03-30T12:50:47.903Z,36.90
2018-03-30T12:53:15.602Z,37.10
2018-03-30T12:55:41.844Z,37.10
2018-03-30T12:58:09.052Z,37.30
2018-03-30T13:00:36.055Z,37.60
2018-03-30T13:03:03.011Z,38.40
2018-03-30T13:05:29.266Z,38.10
2018-03-30T13:07:56.466Z,38.30
2018-03-30T13:10:22.780Z,38.90
2018-03-30T13:12:49.110Z,39.80
2018-03-30T13:15:15.598Z,38.40
2018-03-30T13:17:42.214Z,37.50
2018-03-30T13:20:09.228Z,37.50
2018-03-30T13:22:35.548Z,37.70
2018-03-30T13:25:03.422Z,36.50
2018-03-30T13:27:30.550Z,36.70
2018-03-30T13:29:56.814Z,36.20
2018-03-30T13:32:24.675Z,33.90
2018-03-30T13:34:52.759Z,33.80
2018-03-30T13:37:19.051Z,35.20
2018-03-30T13:39:45.793Z,33.20
2018-03-30T13:42:12.068Z,34.80
2018-03-30T13:44:38.949Z,34.10
2018-03-30T13:47:05.579Z,34.00
2018-03-30T13:49:31.854Z,34.00
2018-03-30T13:52:24.705Z,34.60
2018-03-30T13:54:51.753Z,34.60
2018-03-30T13:57:29.864Z,35.20
2018-03-30T13:59:56.982Z,35.20
2018-03-30T14:02:30.264Z,34.30
2018-03-30T14:08:31.504Z,34.00
2018-03-30T14:11:00.167Z,34.20
2018-03-30T14:13:26.487Z,33.20
2018-03-30T14:15:58.878Z,34.60
2018-03-30T14:21:17.975Z,34.80
2018-03-30T14:23:44.991Z,35.00
2018-03-30T14:29:12.138Z,35.00
2018-03-30T14:31:45.276Z,35.30
2018-03-30T14:34:17.264Z,35.50
2018-03-30T14:37:00.469Z,34.10
2018-03-30T14:39:40.594Z,34.00
2018-03-30T14:42:24.767Z,34.10
2018-03-30T14:44:56.864Z,33.90
2018-03-30T14:47:24.407Z,34.30
2018-03-30T14:49:54.328Z,34.30
2018-03-30T14:52:45.290Z,34.70
2018-03-30T14:55:22.259Z,35.40
2018-03-30T14:57:55.335Z,35.50
2018-03-30T15:00:27.421Z,35.80
2018-03-30T15:03:10.597Z,36.40
2018-03-30T15:05:45.730Z,37.50
2018-03-30T15:11:35.578Z,38.20
2018-03-30T15:14:16.774Z,38.90
2018-03-30T15:16:50.951Z,39.00
2018-03-30T15:19:28.039Z,39.40
2018-03-30T15:22:12.975Z,40.50
2018-03-30T15:24:52.072Z,41.30
2018-03-30T15:27:22.345Z,41.60
2018-03-30T15:30:01.121Z,42.40
2018-03-30T15:32:28.241Z,42.30
2018-03-30T15:34:54.552Z,42.70
2018-03-30T15:37:21.904Z,43.90
2018-03-30T15:39:53.807Z,43.70
2018-03-30T15:42:20.939Z,43.70
2018-03-30T15:44:47.224Z,42.60
2018-03-30T15:47:15.816Z,41.90
2018-03-30T15:49:42.859Z,41.90
2018-03-30T15:52:12.856Z,42.50
2018-03-30T15:54:39.162Z,42.30
2018-03-30T15:57:05.494Z,42.20
2018-03-30T15:59:31.852Z,42.90
2018-03-30T16:01:58.194Z,42.90
2018-03-30T16:04:24.485Z,42.50
2018-03-30T16:06:50.780Z,42.70
2018-03-30T16:09:19.093Z,43.40
2018-03-30T16:11:45.396Z,43.40
2018-03-30T16:14:12.739Z,43.40
2018-03-30T16:16:39.010Z,43.70
2018-03-30T16:19:05.082Z,43.60
2018-03-30T16:21:31.124Z,44.20
2018-03-30T16:23:57.164Z,44.70
2018-03-30T16:26:23.303Z,44.80
2018-03-30T16:28:49.383Z,45.00
2018-03-30T16:31:15.485Z,45.40
2018-03-30T16:33:41.875Z,45.90
2018-03-30T16:36:07.940Z,45.90
2018-03-30T16:38:34.408Z,46.30
2018-03-30T16:41:00.437Z,46.30
2018-03-30T16:43:26.553Z,46.20
2018-03-30T16:45:52.650Z,46.60
2018-03-30T16:48:19.027Z,47.20
2018-03-30T16:50:45.085Z,47.20
2018-03-30T16:53:11.159Z,47.60
2018-03-30T16:55:37.234Z,47.70
2018-03-30T16:58:04.250Z,48.10
2018-03-30T17:00:30.318Z,48.00
2018-03-30T17:02:56.742Z,48.40
2018-03-30T17:05:23.164Z,48.30
2018-03-30T17:07:49.213Z,48.30
2018-03-30T17:10:15.273Z,48.50
2018-03-30T17:12:41.416Z,48.70
2018-03-30T17:15:07.482Z,48.80
2018-03-30T17:17:33.598Z,48.90
2018-03-30T17:19:59.626Z,49.10
2018-03-30T17:22:26.009Z,49.40
2018-03-30T17:24:52.098Z,49.40
2018-03-30T17:27:18.115Z,50.00
2018-03-30T17:29:44.558Z,50.50
2018-03-30T17:32:10.635Z,50.50
2018-03-30T17:34:36.753Z,50.60
2018-03-30T17:37:03.687Z,51.10
2018-03-30T17:39:29.827Z,50.80
2018-03-30T17:41:55.862Z,50.90
2018-03-30T17:44:21.926Z,50.80
2018-03-30T17:46:48.009Z,51.30
2018-03-30T17:49:14.051Z,52.50
2018-03-30T17:51:40.134Z,52.40
2018-03-30T17:54:06.220Z,52.30
2018-03-30T17:56:32.293Z,52.30
2018-03-30T17:58:58.363Z,52.70
2018-03-30T18:01:24.451Z,53.40
2018-03-30T18:03:50.490Z,54.20
2018-03-30T18:06:16.961Z,55.70
2018-03-30T18:08:43.066Z,55.70
2018-03-30T18:11:09.516Z,57.00
2018-03-30T18:13:35.597Z,57.00
2018-03-30T18:16:02.082Z,57.10
2018-03-30T18:18:28.166Z,57.10
2018-03-30T18:20:54.241Z,56.20
2018-03-30T18:23:20.328Z,56.40
2018-03-30T18:25:46.771Z,56.00
2018-03-30T18:28:12.887Z,56.10
2018-03-30T18:30:38.972Z,56.90
2018-03-30T18:33:05.078Z,56.60
2018-03-30T18:35:31.115Z,57.00
2018-03-30T18:37:57.224Z,56.60
2018-03-30T18:40:23.288Z,57.70
2018-03-30T18:42:49.355Z,56.90
2018-03-30T18:45:16.333Z,57.90
2018-03-30T18:47:42.414Z,58.70
2018-03-30T18:50:08.519Z,61.00
2018-03-30T18:52:34.629Z,59.30
2018-03-30T18:55:00.675Z,60.10
2018-03-30T18:57:27.099Z,59.40
2018-03-30T18:59:53.572Z,59.20
2018-03-30T19:02:19.633Z,59.20
2018-03-30T19:04:45.730Z,59.70
2018-03-30T19:07:11.813Z,60.30
2018-03-30T19:09:38.264Z,58.60
2018-03-30T19:12:04.370Z,58.60
2018-03-30T19:14:30.470Z,59.30
2018-03-30T19:16:56.596Z,64.70
2018-03-30T19:19:22.656Z,62.90
2018-03-30T19:21:48.761Z,63.70
2018-03-30T19:24:15.268Z,66.70
2018-03-30T19:26:41.336Z,66.70
2018-03-30T19:29:08.050Z,65.10
2018-03-30T19:31:34.103Z,66.40
2018-03-30T19:34:00.579Z,71.70
2018-03-30T19:36:26.705Z,71.70
2018-03-30T19:38:52.761Z,72.10
2018-03-30T19:41:18.845Z,72.90
2018-03-30T19:43:44.914Z,73.80
2018-03-30T19:46:11.014Z,74.70
2018-03-30T19:48:37.095Z,74.90
2018-03-30T19:51:03.256Z,74.90
2018-03-30T19:53:29.353Z,75.20
2018-03-30T19:55:55.447Z,75.60
2018-03-30T19:58:23.610Z,76.50
2018-03-30T20:00:49.707Z,76.50
2018-03-30T20:03:16.356Z,77.40
2018-03-30T20:05:42.524Z,78.70
2018-03-30T20:08:09.006Z,81.60
2018-03-30T20:10:35.122Z,81.60
2018-03-30T20:13:01.247Z,82.50
2018-03-30T20:15:27.320Z,83.40
2018-03-30T20:17:53.426Z,84.00
2018-03-30T20:20:19.484Z,82.90
2018-03-30T20:22:45.886Z,82.00
2018-03-30T20:25:29.317Z,82.00
2018-03-30T20:27:55.449Z,82.80
2018-03-30T20:30:21.520Z,81.80
2018-03-30T20:32:47.650Z,80.70
2018-03-30T20:35:13.755Z,82.70
2018-03-30T20:37:39.843Z,81.80
2018-03-30T20:40:05.944Z,81.50
2018-03-30T20:42:32.021Z,82.10
2018-03-30T20:44:58.064Z,82.70
2018-03-30T20:47:24.176Z,81.40
2018-03-30T20:49:50.330Z,80.40
2018-03-30T20:52:16.407Z,80.80
2018-03-30T20:54:42.919Z,81.30
2018-03-30T20:57:08.991Z,81.30
2018-03-30T20:59:35.033Z,82.10
2018-03-30T21:02:01.131Z,83.40
2018-03-30T21:04:27.198Z,84.20
2018-03-30T21:06:53.264Z,83.90
2018-03-30T21:09:19.372Z,85.20
2018-03-30T21:11:45.407Z,85.50
2018-03-30T21:14:11.430Z,84.00
2018-03-30T21:16:37.534Z,84.10
2018-03-30T21:19:03.566Z,84.80
2018-03-30T21:21:30.529Z,85.20
2018-03-30T21:23:57.919Z,84.80
2018-03-30T21:26:23.960Z,84.80
2018-03-30T21:28:50.008Z,82.70
2018-03-30T21:31:16.018Z,82.70
2018-03-30T21:33:42.076Z,83.80
2018-03-30T21:36:08.112Z,85.70
2018-03-30T21:38:34.145Z,85.70
2018-03-30T21:41:00.224Z,86.10
2018-03-30T21:43:26.217Z,86.70
2018-03-30T21:45:52.267Z,87.30
2018-03-30T21:48:18.298Z,86.50
2018-03-30T21:50:44.418Z,86.30
2018-03-30T21:53:10.440Z,86.90
2018-03-30T21:55:36.488Z,86.00
2018-03-30T21:58:02.565Z,87.00
2018-03-30T22:00:28.585Z,86.40
2018-03-30T22:02:54.678Z,85.10
2018-03-30T22:05:21.077Z,85.80
2018-03-30T22:07:47.088Z,85.80
2018-03-30T22:10:13.144Z,85.50
2018-03-30T22:12:39.538Z,86.70
2018-03-30T22:15:05.612Z,86.80
2018-03-30T22:17:32.075Z,86.00
2018-03-30T22:19:58.121Z,86.00
2018-03-30T22:22:24.181Z,87.90
2018-03-30T22:24:50.232Z,86.10
2018-03-30T22:27:16.278Z,86.90
2018-03-30T22:29:42.305Z,88.00
2018-03-30T22:32:08.340Z,88.20
2018-03-30T22:34:34.411Z,87.60
2018-03-30T22:37:00.825Z,87.10
2018-03-30T22:39:26.844Z,87.10
2018-03-30T22:41:52.905Z,86.90
2018-03-30T22:44:18.955Z,87.10
2018-03-30T22:46:44.974Z,87.80
2018-03-30T22:49:11.030Z,88.00
2018-03-30T22:51:37.083Z,88.10
2018-03-30T22:54:03.085Z,88.30
2018-03-30T22:56:29.155Z,88.20
2018-03-30T22:58:55.198Z,89.00
2018-03-30T23:01:21.233Z,87.10
2018-03-30T23:03:47.267Z,86.80
2018-03-30T23:06:13.260Z,87.00
2018-03-30T23:08:39.294Z,87.70
2018-03-30T23:11:05.407Z,87.40
2018-03-30T23:13:31.412Z,87.40
2018-03-30T23:15:57.452Z,86.80
2018-03-30T23:18:23.563Z,87.00
2018-03-30T23:20:49.593Z,86.90
2018-03-30T23:23:15.588Z,87.00
2018-03-30T23:25:41.596Z,86.90
2018-03-30T23:28:07.646Z,85.70
2018-03-30T23:30:33.693Z,84.70
2018-03-30T23:32:59.755Z,84.30
2018-03-30T23:35:25.774Z,84.30
2018-03-30T23:37:51.780Z,84.50
2018-03-30T23:40:17.816Z,85.90
2018-03-30T23:42:43.858Z,86.10
2018-03-30T23:45:09.885Z,86.90
2018-03-30T23:47:35.907Z,85.80
2018-03-30T23:50:02.382Z,85.90
2018-03-30T23:52:28.413Z,85.90
2018-03-30T23:54:54.435Z,85.50
2018-03-30T23:57:20.485Z,85.90
2018-03-30T23:59:46.511Z,86.10
